createdAt,value
2023-03-11T00:00:23.573Z,99426.63
2023-03-11T00:02:51.835Z,99423.41
2023-03-11T00:05:22.414Z,99441.06
2023-03-11T00:07:51.908Z,99437.91
2023-03-11T00:10:20.557Z,99442.53
2023-03-11T00:12:47.382Z,99450.09
2023-03-11T00:15:17.003Z,99453.47
2023-03-11T00:17:44.781Z,99450.50
2023-03-11T00:20:48.036Z,99454.91
2023-03-11T00:23:17.247Z,99467.75
2023-03-11T00:25:46.028Z,99470.03
2023-03-11T00:28:16.837Z,99471.56
2023-03-11T00:30:47.275Z,99482.13
2023-03-11T00:33:15.358Z,99480.41
2023-03-11T00:35:42.689Z,99487.25
2023-03-11T00:38:11.781Z,99493.25
2023-03-11T00:40:40.587Z,99498.66
2023-03-11T00:43:09.013Z,99504.09
2023-03-11T00:45:35.513Z,99506.66
2023-03-11T00:48:04.460Z,99518.75
2023-03-11T00:50:33.064Z,99531.78
2023-03-11T00:53:00.497Z,99522.66
2023-03-11T00:55:30.144Z,99522.75
2023-03-11T00:58:00.328Z,99532.41
2023-03-11T01:00:29.236Z,99534.41
2023-03-11T01:02:56.216Z,99539.50
2023-03-11T01:05:25.812Z,99544.38
2023-03-11T01:07:54.256Z,99548.59
2023-03-11T01:10:23.653Z,99551.78
2023-03-11T01:12:53.589Z,99556.50
2023-03-11T01:15:24.516Z,99562.06
2023-03-11T01:17:52.065Z,99572.50
2023-03-11T01:20:26.136Z,99570.50
2023-03-11T01:22:54.027Z,99575.28
2023-03-11T01:25:22.078Z,99579.00
2023-03-11T01:27:49.604Z,99578.38
2023-03-11T01:30:18.120Z,99588.06
2023-03-11T01:32:47.300Z,99588.00
2023-03-11T01:35:15.172Z,99589.75
2023-03-11T01:37:42.099Z,99596.03
2023-03-11T01:40:15.934Z,99590.53
2023-03-11T01:42:42.569Z,99596.25
2023-03-11T01:45:19.725Z,99598.78
2023-03-11T01:47:47.218Z,99607.22
2023-03-11T01:50:14.161Z,99613.91
2023-03-11T01:52:42.771Z,99620.44
2023-03-11T01:55:12.742Z,99636.34
2023-03-11T01:57:40.772Z,99637.00
2023-03-11T02:00:10.660Z,99640.97
2023-03-11T02:02:47.733Z,99636.34
2023-03-11T02:05:15.642Z,99643.03
2023-03-11T02:07:43.539Z,99649.66
2023-03-11T02:10:12.534Z,99653.81
2023-03-11T02:12:40.820Z,99652.47
2023-03-11T02:15:08.645Z,99659.09
2023-03-11T02:17:37.725Z,99653.28
2023-03-11T02:20:15.244Z,99660.13
2023-03-11T02:22:44.893Z,99657.63
2023-03-11T02:25:15.128Z,99667.22
2023-03-11T02:27:49.437Z,99658.31
2023-03-11T02:30:17.174Z,99661.75
2023-03-11T02:32:44.871Z,99669.22
2023-03-11T02:35:11.823Z,99664.78
2023-03-11T02:37:43.649Z,99667.59
2023-03-11T02:40:23.341Z,99681.16
2023-03-11T02:43:02.405Z,99688.78
2023-03-11T02:45:30.913Z,99700.44
2023-03-11T02:47:59.468Z,99707.16
2023-03-11T02:50:30.292Z,99721.28
2023-03-11T02:52:58.909Z,99725.75
2023-03-11T02:55:27.725Z,99729.56
2023-03-11T02:57:54.445Z,99735.47
2023-03-11T03:00:21.935Z,99739.88
2023-03-11T03:03:08.963Z,99754.44
2023-03-11T03:05:37.840Z,99760.00
2023-03-11T03:08:04.501Z,99756.53
2023-03-11T03:10:32.293Z,99750.53
2023-03-11T03:12:59.331Z,99753.97
2023-03-11T03:15:27.773Z,99773.34
2023-03-11T03:17:56.552Z,99777.63
2023-03-11T03:20:23.675Z,99781.94
2023-03-11T03:22:50.400Z,99787.47
2023-03-11T03:25:21.321Z,99795.16
2023-03-11T03:27:48.130Z,99793.31
2023-03-11T03:30:16.529Z,99805.25
2023-03-11T03:32:44.600Z,99805.22
2023-03-11T03:35:14.896Z,99812.47
2023-03-11T03:37:42.918Z,99813.00
2023-03-11T03:40:10.020Z,99806.34
2023-03-11T03:42:38.933Z,99812.50
2023-03-11T03:45:07.710Z,99814.69
2023-03-11T03:47:34.949Z,99812.03
2023-03-11T03:50:04.415Z,99813.72
2023-03-11T03:52:32.566Z,99818.66
2023-03-11T03:55:01.925Z,99826.66
2023-03-11T03:57:29.168Z,99833.56
2023-03-11T03:59:55.701Z,99841.41
2023-03-11T04:02:23.605Z,99845.59
2023-03-11T04:04:50.988Z,99849.63
2023-03-11T04:07:23.035Z,99859.03
2023-03-11T04:09:50.343Z,99855.75
2023-03-11T04:12:17.742Z,99857.09
2023-03-11T04:14:46.117Z,99863.97
2023-03-11T04:17:13.933Z,99869.22
2023-03-11T04:19:42.334Z,99860.63
2023-03-11T04:22:11.075Z,99866.06
2023-03-11T04:24:37.870Z,99869.75
2023-03-11T04:27:06.271Z,99868.81
2023-03-11T04:29:32.945Z,99870.69
2023-03-11T04:32:00.790Z,99874.34
2023-03-11T04:34:28.970Z,99873.44
2023-03-11T04:36:58.503Z,99873.81
2023-03-11T04:39:25.476Z,99873.50
2023-03-11T04:41:52.969Z,99876.00
2023-03-11T04:44:19.713Z,99868.88
2023-03-11T04:46:47.931Z,99874.91
2023-03-11T04:49:15.853Z,99883.06
2023-03-11T04:51:43.210Z,99882.41
2023-03-11T04:54:10.123Z,99885.16
2023-03-11T04:56:37.503Z,99887.44
2023-03-11T04:59:04.653Z,99897.84
2023-03-11T05:01:35.998Z,99901.34
2023-03-11T05:04:05.307Z,99906.94
2023-03-11T05:06:33.192Z,99909.09
2023-03-11T05:08:59.925Z,99912.22
2023-03-11T05:11:26.709Z,99911.34
2023-03-11T05:13:53.242Z,99922.66
2023-03-11T05:16:19.756Z,99926.94
2023-03-11T05:18:46.454Z,99931.59
2023-03-11T05:21:14.698Z,99943.72
2023-03-11T05:23:42.665Z,99945.66
2023-03-11T05:26:09.457Z,99949.94
2023-03-11T05:28:36.276Z,99960.06
2023-03-11T05:31:04.052Z,99963.34
2023-03-11T05:33:35.530Z,99969.72
2023-03-11T05:36:07.562Z,99969.91
2023-03-11T05:38:39.562Z,99968.81
2023-03-11T05:41:08.485Z,99983.78
2023-03-11T05:43:35.653Z,99987.72
2023-03-11T05:46:02.570Z,99981.06
2023-03-11T05:48:29.848Z,99989.81
2023-03-11T05:50:56.391Z,99990.66
2023-03-11T05:53:23.619Z,100003.66
2023-03-11T05:56:00.658Z,100001.16
2023-03-11T05:58:27.782Z,100008.81
2023-03-11T06:00:54.506Z,100016.16
2023-03-11T06:03:21.361Z,100015.97
2023-03-11T06:05:48.279Z,100013.88
2023-03-11T06:08:15.570Z,100015.94
2023-03-11T06:10:42.803Z,100023.41
2023-03-11T06:13:10.196Z,100019.94
2023-03-11T06:15:38.551Z,100026.41
2023-03-11T06:18:08.012Z,100025.38
2023-03-11T06:20:35.141Z,100047.31
2023-03-11T06:23:03.074Z,100037.97
2023-03-11T06:25:29.739Z,100043.13
2023-03-11T06:27:59.018Z,100047.13
2023-03-11T06:30:25.970Z,100052.09
2023-03-11T06:32:55.378Z,100045.00
2023-03-11T06:35:23.072Z,100060.34
2023-03-11T06:37:49.782Z,100065.28
2023-03-11T06:40:17.939Z,100060.63
2023-03-11T06:42:47.042Z,100073.81
2023-03-11T06:45:14.568Z,100080.13
2023-03-11T06:47:43.488Z,100086.38
2023-03-11T06:50:11.369Z,100093.16
2023-03-11T06:52:45.850Z,100090.38
2023-03-11T06:55:13.799Z,100089.69
2023-03-11T06:57:41.026Z,100101.06
2023-03-11T07:00:12.701Z,100099.06
2023-03-11T07:02:41.846Z,100115.44
2023-03-11T07:05:09.743Z,100110.03
2023-03-11T07:07:37.275Z,100117.28
2023-03-11T07:10:13.441Z,100115.28
2023-03-11T07:12:40.289Z,100133.09
2023-03-11T07:15:08.184Z,100134.38
2023-03-11T07:17:35.928Z,100135.72
2023-03-11T07:20:04.134Z,100138.84
2023-03-11T07:22:31.018Z,100140.88
2023-03-11T07:24:58.205Z,100129.72
2023-03-11T07:27:24.898Z,100142.06
2023-03-11T07:29:51.675Z,100137.38
2023-03-11T07:32:19.163Z,100138.00
2023-03-11T07:34:46.441Z,100152.69
2023-03-11T07:37:14.535Z,100163.22
2023-03-11T07:39:42.190Z,100164.88
2023-03-11T07:42:09.329Z,100166.84
2023-03-11T07:44:36.220Z,100166.72
2023-03-11T07:47:04.414Z,100169.19
2023-03-11T07:49:32.760Z,100170.28
2023-03-11T07:51:59.603Z,100174.75
2023-03-11T07:54:26.630Z,100178.53
2023-03-11T07:56:54.049Z,100189.66
2023-03-11T07:59:20.766Z,100192.28
2023-03-11T08:01:47.456Z,100192.41
2023-03-11T08:04:17.010Z,100193.78
2023-03-11T08:06:45.949Z,100198.81
2023-03-11T08:09:14.265Z,100209.81
2023-03-11T08:11:41.295Z,100204.50
2023-03-11T08:14:08.260Z,100210.13
2023-03-11T08:16:35.144Z,100222.22
2023-03-11T08:19:02.365Z,100224.88
2023-03-11T08:21:31.980Z,100226.63
2023-03-11T08:24:00.278Z,100234.06
2023-03-11T08:26:27.717Z,100232.41
2023-03-11T08:28:54.788Z,100243.88
2023-03-11T08:31:24.154Z,100244.03
2023-03-11T08:33:52.926Z,100246.59
2023-03-11T08:36:20.313Z,100246.69
2023-03-11T08:38:47.418Z,100246.75
2023-03-11T08:41:15.151Z,100255.09
2023-03-11T08:43:42.376Z,100261.19
2023-03-11T08:46:10.717Z,100256.63
2023-03-11T08:48:39.342Z,100262.69
2023-03-11T08:51:10.337Z,100268.56
2023-03-11T08:53:37.725Z,100277.38
2023-03-11T08:56:04.808Z,100274.91
2023-03-11T08:58:33.071Z,100277.00
2023-03-11T09:01:00.013Z,100279.81
2023-03-11T09:03:27.813Z,100281.38
2023-03-11T09:06:04.751Z,100289.31
2023-03-11T09:08:31.341Z,100291.31
2023-03-11T09:10:57.857Z,100295.88
2023-03-11T09:13:24.869Z,100292.97
2023-03-11T09:15:52.178Z,100290.84
2023-03-11T09:18:18.977Z,100294.66
2023-03-11T09:20:47.018Z,100297.50
2023-03-11T09:23:15.260Z,100298.78
2023-03-11T09:25:42.235Z,100301.81
2023-03-11T09:28:09.978Z,100306.53
2023-03-11T09:30:39.421Z,100319.03
2023-03-11T09:33:06.297Z,100316.38
2023-03-11T09:35:33.213Z,100320.22
2023-03-11T09:38:00.434Z,100319.84
2023-03-11T09:40:29.219Z,100323.63
2023-03-11T09:42:59.108Z,100319.91
2023-03-11T09:45:29.343Z,100321.34
2023-03-11T09:47:58.790Z,100323.94
2023-03-11T09:50:44.388Z,100319.06
2023-03-11T09:53:15.999Z,100323.16
2023-03-11T09:55:47.974Z,100315.50
2023-03-11T09:58:29.522Z,100338.69
2023-03-11T10:00:56.903Z,100324.69
2023-03-11T10:03:38.687Z,100332.75
2023-03-11T10:06:24.689Z,100331.25
2023-03-11T10:09:10.656Z,100331.75
2023-03-11T10:11:57.080Z,100333.25
2023-03-11T10:14:27.042Z,100339.56
2023-03-11T10:16:53.877Z,100348.00
2023-03-11T10:19:24.863Z,100349.50
2023-03-11T10:22:12.425Z,100347.53
2023-03-11T10:24:41.909Z,100355.97
2023-03-11T10:27:17.256Z,100353.03
2023-03-11T10:29:43.911Z,100358.00
2023-03-11T10:32:16.921Z,100356.13
2023-03-11T10:34:53.438Z,100356.63
2023-03-11T10:37:49.146Z,100359.66
2023-03-11T10:40:30.647Z,100357.53
2023-03-11T10:42:58.712Z,100366.47
2023-03-11T10:45:25.903Z,100350.22
2023-03-11T10:47:52.332Z,100360.41
2023-03-11T10:50:20.087Z,100360.63
2023-03-11T10:53:04.832Z,100356.81
2023-03-11T10:55:32.442Z,100361.69
2023-03-11T10:58:07.047Z,100359.31
2023-03-11T11:00:34.276Z,100360.56
2023-03-11T11:03:04.230Z,100355.03
2023-03-11T11:05:32.944Z,100351.34
2023-03-11T11:08:20.439Z,100358.81
2023-03-11T11:10:57.519Z,100359.66
2023-03-11T11:13:25.845Z,100356.47
2023-03-11T11:15:57.280Z,100350.13
2023-03-11T11:18:26.370Z,100360.97
2023-03-11T11:21:03.983Z,100358.84
2023-03-11T11:23:35.952Z,100356.47
2023-03-11T11:26:05.413Z,100353.63
2023-03-11T11:28:33.509Z,100353.13
2023-03-11T11:31:20.008Z,100354.72
2023-03-11T11:33:52.407Z,100353.25
2023-03-11T11:36:21.203Z,100344.69
2023-03-11T11:38:48.999Z,100347.47
2023-03-11T11:41:18.905Z,100352.09
2023-03-11T11:43:51.570Z,100346.31
2023-03-11T11:46:25.418Z,100346.72
2023-03-11T11:49:07.438Z,100346.84
2023-03-11T11:51:37.111Z,100345.13
2023-03-11T11:54:24.938Z,100331.59
2023-03-11T11:56:52.797Z,100342.31
2023-03-11T11:59:22.102Z,100334.91
2023-03-11T12:02:05.514Z,100331.03
2023-03-11T12:04:43.877Z,100347.34
2023-03-11T12:07:22.806Z,100351.03
2023-03-11T12:09:50.217Z,100337.00
2023-03-11T12:12:20.071Z,100339.94
2023-03-11T12:14:47.139Z,100334.25
2023-03-11T12:17:17.038Z,100340.31
2023-03-11T12:19:48.476Z,100335.81
2023-03-11T12:22:15.223Z,100331.50
2023-03-11T12:25:00.437Z,100324.97
2023-03-11T12:27:30.870Z,100329.00
2023-03-11T12:30:04.012Z,100317.53
2023-03-11T12:32:34.451Z,100323.25
2023-03-11T12:35:04.929Z,100328.88
2023-03-11T12:37:33.401Z,100323.69
2023-03-11T12:40:00.902Z,100314.16
2023-03-11T12:42:38.970Z,100326.69
2023-03-11T12:45:25.323Z,100322.13
2023-03-11T12:48:12.707Z,100319.16
2023-03-11T12:50:42.013Z,100323.25
2023-03-11T12:53:16.363Z,100316.47
2023-03-11T12:56:01.332Z,100302.50
2023-03-11T12:58:34.389Z,100308.56
2023-03-11T13:01:24.311Z,100314.75
2023-03-11T13:04:23.456Z,100317.69
2023-03-11T13:07:08.870Z,100322.81
2023-03-11T13:09:35.488Z,100324.31
2023-03-11T13:12:02.325Z,100316.25
2023-03-11T13:14:36.851Z,100321.41
2023-03-11T13:17:39.223Z,100315.78
2023-03-11T13:20:26.724Z,100327.53
2023-03-11T13:22:53.493Z,100320.47
2023-03-11T13:25:30.918Z,100325.91
2023-03-11T13:28:20.827Z,100324.47
2023-03-11T13:31:04.430Z,100324.31
2023-03-11T13:33:57.759Z,100331.53
2023-03-11T13:36:24.871Z,100317.63
2023-03-11T13:39:11.659Z,100325.44
2023-03-11T13:41:41.821Z,100323.69
2023-03-11T13:44:14.374Z,100309.63
2023-03-11T13:46:42.488Z,100309.25
2023-03-11T13:49:18.967Z,100324.69
2023-03-11T13:51:49.456Z,100325.25
2023-03-11T13:54:18.577Z,100321.78
2023-03-11T13:56:49.227Z,100331.72
2023-03-11T13:59:23.254Z,100333.66
2023-03-11T14:01:55.300Z,100330.91
2023-03-11T14:04:29.915Z,100333.28
2023-03-11T14:06:56.746Z,100337.41
2023-03-11T14:09:24.534Z,100332.69
2023-03-11T14:11:53.409Z,100337.78
2023-03-11T14:14:31.128Z,100339.25
2023-03-11T14:16:58.893Z,100340.22
2023-03-11T14:19:27.596Z,100347.69
2023-03-11T14:21:55.542Z,100351.72
2023-03-11T14:24:31.896Z,100337.66
2023-03-11T14:27:01.187Z,100336.19
2023-03-11T14:29:35.836Z,100334.38
2023-03-11T14:32:16.223Z,100337.31
2023-03-11T14:34:43.181Z,100327.91
2023-03-11T14:37:45.236Z,100335.75
2023-03-11T14:40:24.285Z,100343.94
2023-03-11T14:42:53.943Z,100342.69
2023-03-11T14:45:22.535Z,100348.53
2023-03-11T14:47:49.168Z,100355.03
2023-03-11T14:50:17.894Z,100349.31
2023-03-11T14:53:04.935Z,100348.06
2023-03-11T14:55:35.048Z,100351.28
2023-03-11T14:58:07.719Z,100349.13
2023-03-11T15:00:36.713Z,100353.03
2023-03-11T15:03:03.332Z,100349.03
2023-03-11T15:05:48.609Z,100350.44
2023-03-11T15:08:17.259Z,100345.59
2023-03-11T15:11:04.268Z,100341.44
2023-03-11T15:13:31.516Z,100350.53
2023-03-11T15:15:59.855Z,100350.06
2023-03-11T15:18:29.719Z,100344.94
2023-03-11T15:21:16.305Z,100350.00
2023-03-11T15:23:59.279Z,100351.22
2023-03-11T15:26:29.750Z,100352.81
2023-03-11T15:28:57.376Z,100353.25
2023-03-11T15:31:23.774Z,100363.84
2023-03-11T15:33:51.828Z,100358.38
2023-03-11T15:36:32.716Z,100342.28
2023-03-11T15:39:19.627Z,100345.31
2023-03-11T15:42:04.756Z,100347.31
2023-03-11T15:44:33.319Z,100344.00
2023-03-11T15:47:00.798Z,100344.72
2023-03-11T15:49:29.640Z,100338.75
2023-03-11T15:52:03.185Z,100335.88
2023-03-11T15:54:30.204Z,100340.81
2023-03-11T15:56:58.537Z,100342.41
2023-03-11T15:59:25.575Z,100403.44
2023-03-11T16:01:52.466Z,100408.91
2023-03-11T16:04:19.909Z,100413.16
2023-03-11T16:06:56.507Z,100400.84
2023-03-11T16:09:31.583Z,100379.25
2023-03-11T16:11:58.093Z,100389.34
2023-03-11T16:14:24.622Z,100377.25
2023-03-11T16:16:51.064Z,100368.78
2023-03-11T16:19:17.553Z,100374.09
2023-03-11T16:21:46.800Z,100381.56
2023-03-11T16:24:17.983Z,100385.97
2023-03-11T16:26:44.799Z,100385.75
2023-03-11T16:29:19.009Z,100390.84
2023-03-11T16:31:46.279Z,100382.91
2023-03-11T16:34:12.988Z,100390.72
2023-03-11T16:36:40.330Z,100388.84
2023-03-11T16:39:07.085Z,100392.03
2023-03-11T16:41:41.024Z,100394.66
2023-03-11T16:44:09.599Z,100395.16
2023-03-11T16:46:36.466Z,100394.53
2023-03-11T16:49:03.234Z,100401.50
2023-03-11T16:51:29.951Z,100400.00
2023-03-11T16:53:56.530Z,100400.25
2023-03-11T16:56:23.019Z,100405.81
2023-03-11T16:58:49.598Z,100405.47
2023-03-11T17:01:21.591Z,100401.22
2023-03-11T17:03:51.938Z,100396.84
2023-03-11T17:06:19.449Z,100399.81
2023-03-11T17:08:49.060Z,100401.16
2023-03-11T17:11:20.122Z,100407.25
2023-03-11T17:13:46.622Z,100413.03
2023-03-11T17:16:13.497Z,100407.41
2023-03-11T17:18:40.740Z,100417.34
2023-03-11T17:21:10.181Z,100412.94
2023-03-11T17:23:37.055Z,100415.34
2023-03-11T17:26:07.738Z,100418.38
2023-03-11T17:28:35.042Z,100418.16
2023-03-11T17:31:02.139Z,100422.78
2023-03-11T17:33:29.541Z,100429.53
2023-03-11T17:36:03.016Z,100443.94
2023-03-11T17:38:29.769Z,100429.19
2023-03-11T17:40:57.035Z,100427.03
2023-03-11T17:43:23.933Z,100423.91
2023-03-11T17:45:51.268Z,100428.88
2023-03-11T17:48:17.955Z,100437.66
2023-03-11T17:50:44.597Z,100420.56
2023-03-11T17:53:11.566Z,100421.75
2023-03-11T17:55:40.646Z,100425.13
2023-03-11T17:58:07.465Z,100432.38
2023-03-11T18:00:34.201Z,100445.78
2023-03-11T18:03:01.554Z,100447.22
2023-03-11T18:05:28.507Z,100427.94
2023-03-11T18:07:56.383Z,100450.47
2023-03-11T18:10:23.553Z,100442.25
2023-03-11T18:12:50.667Z,100449.47
2023-03-11T18:15:23.447Z,100457.09
2023-03-11T18:17:50.150Z,100442.50
2023-03-11T18:20:18.603Z,100445.06
2023-03-11T18:22:46.677Z,100440.56
2023-03-11T18:25:13.871Z,100447.38
2023-03-11T18:27:41.169Z,100445.75
2023-03-11T18:30:08.817Z,100446.28
2023-03-11T18:32:38.338Z,100449.84
2023-03-11T18:35:06.530Z,100448.03
2023-03-11T18:37:34.122Z,100445.50
2023-03-11T18:40:00.639Z,100447.09
2023-03-11T18:42:27.273Z,100451.69
2023-03-11T18:44:54.342Z,100454.63
2023-03-11T18:47:22.261Z,100454.97
2023-03-11T18:49:50.207Z,100458.75
2023-03-11T18:52:17.087Z,100455.94
2023-03-11T18:54:44.576Z,100459.06
2023-03-11T18:57:11.622Z,100459.81
2023-03-11T18:59:38.474Z,100468.03
2023-03-11T19:02:05.442Z,100474.03
2023-03-11T19:04:33.098Z,100475.75
2023-03-11T19:07:01.159Z,100477.84
2023-03-11T19:09:27.751Z,100473.66
2023-03-11T19:11:54.518Z,100469.69
2023-03-11T19:14:21.724Z,100472.91
2023-03-11T19:16:49.642Z,100474.84
2023-03-11T19:19:16.556Z,100473.47
2023-03-11T19:21:44.202Z,100482.53
2023-03-11T19:24:10.804Z,100483.00
2023-03-11T19:26:46.602Z,100476.06
2023-03-11T19:29:14.054Z,100477.66
2023-03-11T19:31:41.090Z,100479.44
2023-03-11T19:34:07.818Z,100464.59
2023-03-11T19:36:35.186Z,100465.16
2023-03-11T19:39:01.772Z,100467.94
2023-03-11T19:41:29.233Z,100472.34
2023-03-11T19:43:55.819Z,100474.44
2023-03-11T19:46:23.723Z,100476.47
2023-03-11T19:48:50.771Z,100489.91
2023-03-11T19:51:17.594Z,100488.13
2023-03-11T19:53:44.267Z,100504.81
2023-03-11T19:56:10.895Z,100512.41
2023-03-11T19:58:37.979Z,100530.56
2023-03-11T20:01:04.620Z,100534.72
2023-03-11T20:03:32.369Z,100534.94
2023-03-11T20:06:03.695Z,100531.91
2023-03-11T20:08:30.719Z,100521.78
2023-03-11T20:11:00.770Z,100520.50
2023-03-11T20:13:27.360Z,100516.22
2023-03-11T20:15:54.789Z,100523.53
2023-03-11T20:18:21.330Z,100523.19
2023-03-11T20:20:47.822Z,100536.22
2023-03-11T20:23:14.777Z,100525.00
2023-03-11T20:25:42.499Z,100528.38
2023-03-11T20:28:09.716Z,100530.22
2023-03-11T20:30:37.797Z,100522.16
2023-03-11T20:33:04.369Z,100529.16
2023-03-11T20:35:31.754Z,100530.41
2023-03-11T20:37:59.849Z,100524.47
2023-03-11T20:40:26.863Z,100527.28
2023-03-11T20:42:53.726Z,100528.44
2023-03-11T20:45:21.879Z,100533.66
2023-03-11T20:47:49.224Z,100529.38
2023-03-11T20:50:16.182Z,100532.34
2023-03-11T20:52:43.278Z,100538.44
2023-03-11T20:55:10.793Z,100546.66
2023-03-11T20:57:38.072Z,100554.25
2023-03-11T21:00:09.271Z,100559.47
2023-03-11T21:02:36.928Z,100556.69
2023-03-11T21:05:03.852Z,100567.31
2023-03-11T21:07:30.926Z,100566.22
2023-03-11T21:09:58.107Z,100563.31
2023-03-11T21:12:24.734Z,100562.72
2023-03-11T21:14:51.362Z,100568.03
2023-03-11T21:17:18.227Z,100560.22
2023-03-11T21:19:45.180Z,100565.84
2023-03-11T21:22:12.286Z,100564.44
2023-03-11T21:24:39.355Z,100558.78
2023-03-11T21:27:06.542Z,100567.81
2023-03-11T21:29:33.542Z,100571.56
2023-03-11T21:32:00.350Z,100569.75
2023-03-11T21:34:27.447Z,100573.03
2023-03-11T21:36:54.517Z,100577.94
2023-03-11T21:39:21.806Z,100568.06
2023-03-11T21:41:49.134Z,100572.94
2023-03-11T21:44:15.742Z,100570.75
2023-03-11T21:46:42.950Z,100571.97
2023-03-11T21:49:09.516Z,100571.75
2023-03-11T21:51:36.031Z,100562.97
2023-03-11T21:54:03.639Z,100561.56
2023-03-11T21:56:30.757Z,100565.47
2023-03-11T21:58:57.908Z,100564.13
2023-03-11T22:01:25.182Z,100559.34
2023-03-11T22:03:52.221Z,100567.72
2023-03-11T22:06:19.134Z,100562.00
2023-03-11T22:08:46.247Z,100560.53
2023-03-11T22:11:17.979Z,100570.47
2023-03-11T22:13:50.295Z,100567.84
2023-03-11T22:16:17.846Z,100565.88
2023-03-11T22:18:47.777Z,100567.78
2023-03-11T22:21:17.783Z,100564.31
2023-03-11T22:23:44.708Z,100561.72
2023-03-11T22:26:11.219Z,100570.66
2023-03-11T22:28:37.739Z,100561.34
2023-03-11T22:31:11.748Z,100559.28
2023-03-11T22:33:38.064Z,100564.88
2023-03-11T22:36:04.986Z,100557.50
2023-03-11T22:38:32.031Z,100558.72
2023-03-11T22:41:00.277Z,100567.00
2023-03-11T22:43:27.396Z,100568.72
2023-03-11T22:45:53.952Z,100573.25
2023-03-11T22:48:21.356Z,100575.69
2023-03-11T22:50:48.461Z,100577.50
2023-03-11T22:53:17.293Z,100595.28
2023-03-11T22:55:44.649Z,100593.38
2023-03-11T22:58:13.245Z,100591.59
2023-03-11T23:00:40.248Z,100583.59
2023-03-11T23:03:07.355Z,100593.28
2023-03-11T23:05:40.672Z,100579.91
2023-03-11T23:08:08.452Z,100588.09
2023-03-11T23:10:44.902Z,100603.72
2023-03-11T23:13:12.130Z,100593.97
2023-03-11T23:15:42.787Z,100601.34
2023-03-11T23:18:09.986Z,100601.84
2023-03-11T23:20:37.447Z,100607.50
2023-03-11T23:23:04.836Z,100615.66
2023-03-11T23:25:32.800Z,100623.41
2023-03-11T23:28:01.205Z,100621.94
2023-03-11T23:30:28.232Z,100624.59
2023-03-11T23:32:55.068Z,100630.59
2023-03-11T23:35:21.983Z,100635.81
2023-03-11T23:37:50.589Z,100638.78
2023-03-11T23:40:17.756Z,100647.47
2023-03-11T23:42:44.661Z,100646.97
2023-03-11T23:45:11.699Z,100647.09
2023-03-11T23:47:39.434Z,100646.22
2023-03-11T23:50:07.813Z,100660.56
2023-03-11T23:52:34.649Z,100659.31
2023-03-11T23:55:01.654Z,100654.59
2023-03-11T23:57:28.732Z,100649.25
2023-03-11T23:59:55.359Z,100649.00
